Altmar, New York
Current Conditions -  °F | °C
As of 7:16 AM on Saturday 25 Oct 2014 (Local Time) from KFZY Reporting Station
Haze Haze  
Wind Chill: 45°   Ceiling: 3700
Heat Index: 48°   Visibility: 5mi
Dew Point: 44°   Wind: 7mph
Humidity: 86%   Direction: 190°S
Pressure: 29.83"   Gusts: NA
Location:  43.51°N, 76°W
Report Text: KFZY 251116Z AUTO 19006KT 5SM BR SCT028 OVC037 09/07 A2983 RMK AO2 RAE00 P0000 T00890067
Loading
Personal Weather Stations






























Interactive Weather Map New forecast layout! Learn more

10-Day Weather Forecast

Advertisements
Track Severe Weather on mobile